createdAt,value
2022-12-01T00:01:33.077Z,3.00
2022-12-01T00:06:32.550Z,3.10
2022-12-01T00:11:30.742Z,3.10
2022-12-01T00:16:28.970Z,3.20
2022-12-01T00:21:28.009Z,3.20
2022-12-01T00:26:28.720Z,3.20
2022-12-01T00:31:27.499Z,3.10
2022-12-01T00:36:26.007Z,3.10
2022-12-01T00:41:25.957Z,3.00
2022-12-01T00:46:25.344Z,3.00
2022-12-01T00:51:24.409Z,3.00
2022-12-01T00:56:22.442Z,3.00
2022-12-01T01:01:21.026Z,2.90
2022-12-01T01:06:20.498Z,2.90
2022-12-01T01:11:18.612Z,2.80
2022-12-01T01:16:18.264Z,2.80
2022-12-01T01:21:18.724Z,2.90
2022-12-01T01:26:20.194Z,3.00
2022-12-01T01:31:21.442Z,2.90
2022-12-01T01:36:20.761Z,2.70
2022-12-01T01:41:20.729Z,2.60
2022-12-01T01:46:20.668Z,2.70
2022-12-01T01:51:23.131Z,2.90
2022-12-01T01:56:22.978Z,2.80
2022-12-01T02:01:21.341Z,3.00
2022-12-01T02:06:19.482Z,2.90
2022-12-01T02:11:52.197Z,3.00
2022-12-01T02:17:00.517Z,2.90
2022-12-01T02:22:11.991Z,3.00
2022-12-01T02:27:19.973Z,3.00
2022-12-01T02:32:30.766Z,2.90
2022-12-01T02:37:36.320Z,2.90
2022-12-01T02:42:54.517Z,3.00
2022-12-01T02:47:57.354Z,3.10
2022-12-01T02:52:56.089Z,3.00
2022-12-01T02:57:54.123Z,2.90
2022-12-01T03:03:20.029Z,2.80
2022-12-01T03:08:27.905Z,2.70
2022-12-01T03:13:39.160Z,2.80
2022-12-01T03:18:41.912Z,2.90
2022-12-01T03:23:43.631Z,2.90
2022-12-01T03:28:47.165Z,2.80
2022-12-01T03:33:51.564Z,2.80
2022-12-01T03:38:55.312Z,2.80
2022-12-01T03:43:57.078Z,2.70
2022-12-01T03:48:56.552Z,2.80
2022-12-01T03:54:00.131Z,2.90
2022-12-01T03:59:01.113Z,2.80
2022-12-01T04:04:06.071Z,2.90
2022-12-01T04:09:04.728Z,2.80
2022-12-01T04:14:02.736Z,2.80
2022-12-01T04:19:02.170Z,2.90
2022-12-01T04:24:03.410Z,2.90
2022-12-01T04:29:01.543Z,2.90
2022-12-01T04:34:00.557Z,2.90
2022-12-01T04:39:00.279Z,2.70
2022-12-01T04:43:58.638Z,2.70
2022-12-01T04:48:56.661Z,2.70
2022-12-01T04:53:54.683Z,2.60
2022-12-01T04:58:54.090Z,2.70
2022-12-01T05:03:52.163Z,2.60
2022-12-01T05:08:51.354Z,2.70
2022-12-01T05:13:50.700Z,2.70
2022-12-01T05:18:51.302Z,2.70
2022-12-01T05:23:49.444Z,2.60
2022-12-01T05:28:47.501Z,2.60
2022-12-01T05:33:45.520Z,2.70
2022-12-01T05:38:44.906Z,2.70
2022-12-01T05:43:43.175Z,2.60
2022-12-01T05:48:41.193Z,2.50
2022-12-01T05:53:39.703Z,2.60
2022-12-01T05:58:39.140Z,2.60
2022-12-01T06:03:37.191Z,2.60
2022-12-01T06:08:35.262Z,2.70
2022-12-01T06:13:33.349Z,2.70
2022-12-01T06:18:37.289Z,2.80
2022-12-01T06:23:35.860Z,2.80
2022-12-01T06:28:33.910Z,2.80
2022-12-01T06:33:33.506Z,2.90
2022-12-01T06:38:32.908Z,2.80
2022-12-01T06:43:31.479Z,2.70
2022-12-01T06:48:29.541Z,2.60
2022-12-01T06:53:29.511Z,2.50
2022-12-01T06:58:27.565Z,2.60
2022-12-01T07:03:26.143Z,2.60
2022-12-01T07:08:24.155Z,2.70
2022-12-01T07:13:24.356Z,2.80
2022-12-01T07:18:23.823Z,2.80
2022-12-01T07:23:22.182Z,2.80
2022-12-01T07:28:20.223Z,2.90
2022-12-01T07:33:19.646Z,2.90
2022-12-01T07:38:21.885Z,2.70
2022-12-01T07:43:20.353Z,2.50
2022-12-01T07:48:19.751Z,2.50
2022-12-01T07:53:17.799Z,2.50
2022-12-01T07:58:15.829Z,2.60
2022-12-01T08:03:14.841Z,2.70
2022-12-01T08:08:14.334Z,2.80
2022-12-01T08:13:17.155Z,2.90
2022-12-01T08:18:15.684Z,2.90
2022-12-01T08:23:15.107Z,2.80
2022-12-01T08:28:13.160Z,2.70
2022-12-01T08:33:11.396Z,2.80
2022-12-01T08:38:10.900Z,2.70
2022-12-01T08:43:15.177Z,2.90
2022-12-01T08:48:21.006Z,2.90
2022-12-01T08:53:19.060Z,3.00
2022-12-01T08:58:18.481Z,3.00
2022-12-01T09:03:16.581Z,3.10
2022-12-01T09:08:32.572Z,3.20
2022-12-01T09:13:32.461Z,3.20
2022-12-01T09:18:31.275Z,3.10
2022-12-01T09:23:29.323Z,2.90
2022-12-01T09:28:27.366Z,2.80
2022-12-01T09:33:26.774Z,2.80
2022-12-01T09:38:24.791Z,2.80
2022-12-01T09:43:26.601Z,2.90
2022-12-01T09:48:32.498Z,3.10
2022-12-01T09:53:31.171Z,3.20
2022-12-01T09:58:31.497Z,3.00
2022-12-01T10:03:35.876Z,2.80
2022-12-01T10:08:38.293Z,2.70
2022-12-01T10:13:36.417Z,3.00
2022-12-01T10:18:48.048Z,3.00
2022-12-01T10:24:02.976Z,3.00
2022-12-01T10:29:13.018Z,3.10
2022-12-01T10:34:21.068Z,3.20
2022-12-01T10:39:29.875Z,3.30
2022-12-01T10:44:29.377Z,3.30
2022-12-01T10:49:39.063Z,3.20
2022-12-01T10:54:39.246Z,3.20
2022-12-01T10:59:45.034Z,3.20
2022-12-01T11:04:52.021Z,3.20
2022-12-01T11:10:16.358Z,3.10
2022-12-01T11:15:23.564Z,3.10
2022-12-01T11:20:35.784Z,3.30
2022-12-01T11:25:33.889Z,3.40
2022-12-01T11:30:33.798Z,3.40
2022-12-01T11:35:36.328Z,3.30
2022-12-01T11:40:39.597Z,3.30
2022-12-01T11:45:40.217Z,3.40
2022-12-01T11:50:42.024Z,3.40
2022-12-01T11:55:40.095Z,3.50
2022-12-01T12:00:46.447Z,3.40
2022-12-01T12:06:38.268Z,3.60
2022-12-01T12:11:28.395Z,3.60
2022-12-01T12:16:44.229Z,3.60
2022-12-01T12:21:53.046Z,3.60
2022-12-01T12:26:57.040Z,3.70
2022-12-01T12:32:07.582Z,3.80
2022-12-01T12:37:20.247Z,3.80
2022-12-01T12:42:28.106Z,3.80
2022-12-01T12:47:49.187Z,3.80
2022-12-01T12:52:52.754Z,3.70
2022-12-01T12:57:54.702Z,3.80
2022-12-01T13:02:57.372Z,3.80
2022-12-01T13:08:02.206Z,3.60
2022-12-01T13:13:12.732Z,3.60
2022-12-01T13:18:18.808Z,3.50
2022-12-01T13:23:20.122Z,3.50
2022-12-01T13:28:22.633Z,3.60
2022-12-01T13:33:20.679Z,3.60
2022-12-01T13:38:29.570Z,3.60
2022-12-01T13:43:27.676Z,3.70
2022-12-01T13:48:31.332Z,3.60
2022-12-01T13:53:33.295Z,3.60
2022-12-01T13:58:47.124Z,3.60
2022-12-01T14:03:53.975Z,3.60
2022-12-01T14:08:57.448Z,3.70
2022-12-01T14:13:58.474Z,3.70
2022-12-01T14:18:58.415Z,3.70
2022-12-01T14:24:06.317Z,3.70
2022-12-01T14:29:26.782Z,3.60
2022-12-01T14:34:26.969Z,3.50
2022-12-01T14:39:28.828Z,3.50
2022-12-01T14:44:31.620Z,3.70
2022-12-01T14:49:33.738Z,3.70
2022-12-01T14:54:39.237Z,3.70
2022-12-01T14:59:37.279Z,3.80
2022-12-01T15:04:36.245Z,3.80
2022-12-01T15:09:36.211Z,3.80
2022-12-01T15:14:36.525Z,3.80
2022-12-01T15:19:37.903Z,3.80
2022-12-01T15:24:38.436Z,3.80
2022-12-01T15:29:44.665Z,3.80
2022-12-01T15:34:44.586Z,3.70
2022-12-01T15:39:48.029Z,3.80
2022-12-01T15:44:46.195Z,3.70
2022-12-01T15:49:50.271Z,3.70
2022-12-01T15:54:51.133Z,3.80
2022-12-01T15:59:54.376Z,3.80
2022-12-01T16:05:02.053Z,3.70
2022-12-01T16:10:02.546Z,3.70
2022-12-01T16:15:18.339Z,3.70
2022-12-01T16:20:23.634Z,3.70
2022-12-01T16:25:29.804Z,3.70
2022-12-01T16:30:31.324Z,3.60
2022-12-01T16:35:31.389Z,3.60
2022-12-01T16:40:30.987Z,3.80
2022-12-01T16:45:29.228Z,3.60
2022-12-01T16:50:27.294Z,3.60
2022-12-01T16:55:31.344Z,3.60
2022-12-01T17:00:29.905Z,3.50
2022-12-01T17:05:28.230Z,3.50
2022-12-01T17:10:26.413Z,3.40
2022-12-01T17:15:25.804Z,3.30
2022-12-01T17:20:23.854Z,3.30
2022-12-01T17:25:22.923Z,3.30
2022-12-01T17:30:22.337Z,3.30
2022-12-01T17:35:22.350Z,3.20
2022-12-01T17:40:20.533Z,3.30
2022-12-01T17:45:19.022Z,3.30
2022-12-01T17:50:17.704Z,3.30
2022-12-01T17:55:17.701Z,3.30
2022-12-01T18:00:16.873Z,3.20
2022-12-01T18:05:14.970Z,3.20
2022-12-01T18:10:13.105Z,3.30
2022-12-01T18:15:13.256Z,3.30
2022-12-01T18:20:11.947Z,3.40
2022-12-01T18:25:10.390Z,3.40
2022-12-01T18:30:09.537Z,3.40
2022-12-01T18:35:09.906Z,3.50
2022-12-01T18:40:09.437Z,3.50
2022-12-01T18:45:08.370Z,3.50
2022-12-01T18:50:09.182Z,3.50
2022-12-01T18:55:07.538Z,3.50
2022-12-01T19:00:07.452Z,3.50
2022-12-01T19:05:05.992Z,3.50
2022-12-01T19:10:06.212Z,3.50
2022-12-01T19:15:04.990Z,3.60
2022-12-01T19:20:04.640Z,3.60
2022-12-01T19:25:02.728Z,3.60
2022-12-01T19:30:02.153Z,3.60
2022-12-01T19:35:00.454Z,3.60
2022-12-01T19:40:00.923Z,3.50
2022-12-01T19:44:59.265Z,3.60
2022-12-01T19:49:58.905Z,3.60
2022-12-01T19:54:57.023Z,3.70
2022-12-01T19:59:55.084Z,3.80
2022-12-01T20:04:53.187Z,3.60
2022-12-01T20:09:52.775Z,3.70
2022-12-01T20:14:52.024Z,3.70
2022-12-01T20:19:50.368Z,3.80
2022-12-01T20:24:48.782Z,3.80
2022-12-01T20:29:48.625Z,3.80
2022-12-01T20:34:46.738Z,3.80
2022-12-01T20:39:44.800Z,3.80
2022-12-01T20:44:42.893Z,3.80
2022-12-01T20:49:42.331Z,3.80
2022-12-01T20:54:41.699Z,3.80
2022-12-01T20:59:39.768Z,3.80
2022-12-01T21:04:37.830Z,3.80
2022-12-01T21:09:37.298Z,3.80
2022-12-01T21:14:40.190Z,3.80
2022-12-01T21:19:51.229Z,3.80
2022-12-01T21:24:53.000Z,3.80
2022-12-01T21:29:51.812Z,3.80
2022-12-01T21:34:50.244Z,3.80
2022-12-01T21:39:51.017Z,3.80
2022-12-01T21:44:49.928Z,3.80
2022-12-01T21:49:51.065Z,3.80
2022-12-01T21:54:51.300Z,3.90
2022-12-01T21:59:50.805Z,3.90
2022-12-01T22:04:49.093Z,3.80
2022-12-01T22:09:47.252Z,3.80
2022-12-01T22:14:46.656Z,3.90
2022-12-01T22:19:47.726Z,4.10
2022-12-01T22:24:48.821Z,3.90
2022-12-01T22:29:50.086Z,3.90
2022-12-01T22:34:52.832Z,3.90
2022-12-01T22:39:53.791Z,3.90
2022-12-01T22:44:53.681Z,3.90
2022-12-01T22:49:52.021Z,3.90
2022-12-01T22:54:51.763Z,3.90
2022-12-01T22:59:50.289Z,3.90
2022-12-01T23:04:51.149Z,3.90
2022-12-01T23:09:49.628Z,3.90
2022-12-01T23:14:49.971Z,3.90
2022-12-01T23:19:50.885Z,3.90
2022-12-01T23:24:49.240Z,3.90
2022-12-01T23:29:47.570Z,3.90
2022-12-01T23:34:45.597Z,3.90
2022-12-01T23:39:45.141Z,3.80
2022-12-01T23:44:45.590Z,3.80
2022-12-01T23:49:44.506Z,3.90
2022-12-01T23:54:43.966Z,3.90
2022-12-01T23:59:41.998Z,3.90
